AFL1215 ULAA-ULLI
Flight info
| Callsign | AFL1215 |
|---|---|
| Flight time | 1h 22m |
| Altitude | 38000 |
| Route | OBIRA M58 OSNAN DCT PRIBI DCT BEPOL |
| Aircraft | A20N/M-V/N |
Departure
| Time | 2026-04-15 03:55 |
|---|---|
| Airport | Talagi Airport (ULAA) |
Arrival
| Time | 2026-04-15 05:17 |
|---|---|
| Airport | Pulkovo Airport (ULLI) |
| Time | Latitude | Longitude | Altitude | Speed | Heading |
|---|---|---|---|---|---|
| 2026-04-15 03:44 | 64.59694 | 40.71072 | 72 ft | 0 kts | 6° |
| 2026-04-15 03:50 | 64.59695 | 40.71073 | 72 ft | 0 kts | 6° |
| 2026-04-15 03:50 | 64.59705 | 40.71075 | 72 ft | 2 kts | 5° |
| 2026-04-15 03:50 | 64.59727 | 40.71067 | 72 ft | 3 kts | 338° |
| 2026-04-15 03:50 | 64.59751 | 40.71020 | 72 ft | 5 kts | 329° |
| 2026-04-15 03:51 | 64.59793 | 40.71006 | 72 ft | 6 kts | 5° |
| 2026-04-15 03:51 | 64.59843 | 40.70980 | 72 ft | 8 kts | 312° |
| 2026-04-15 03:51 | 64.59860 | 40.70836 | 72 ft | 9 kts | 274° |
| 2026-04-15 03:51 | 64.59866 | 40.70659 | 72 ft | 11 kts | 275° |
| 2026-04-15 03:52 | 64.59874 | 40.70461 | 72 ft | 12 kts | 276° |
| 2026-04-15 03:52 | 64.59884 | 40.70242 | 72 ft | 13 kts | 276° |
| 2026-04-15 03:52 | 64.59896 | 40.70007 | 72 ft | 14 kts | 277° |
| 2026-04-15 03:52 | 64.59910 | 40.69762 | 72 ft | 15 kts | 277° |
| 2026-04-15 03:53 | 64.59924 | 40.69501 | 72 ft | 15 kts | 277° |
| 2026-04-15 03:53 | 64.59933 | 40.69291 | 72 ft | 12 kts | 277° |
| 2026-04-15 03:53 | 64.59947 | 40.69076 | 72 ft | 13 kts | 298° |
| 2026-04-15 03:53 | 64.60040 | 40.69027 | 72 ft | 14 kts | 8° |
| 2026-04-15 03:54 | 64.60136 | 40.69093 | 72 ft | 14 kts | 51° |
| 2026-04-15 03:54 | 64.60143 | 40.69324 | 72 ft | 20 kts | 94° |
| 2026-04-15 03:54 | 64.60102 | 40.70266 | 73 ft | 94 kts | 96° |
| 2026-04-15 03:55 | 64.59873 | 40.74910 | 493 ft | 166 kts | 97° |
| 2026-04-15 03:55 | 64.59760 | 40.77596 | 1288 ft | 164 kts | 95° |
| 2026-04-15 03:55 | 64.59665 | 40.80250 | 2018 ft | 164 kts | 95° |
| 2026-04-15 03:55 | 64.59381 | 40.82926 | 2439 ft | 182 kts | 124° |
| 2026-04-15 03:56 | 64.58261 | 40.84629 | 2879 ft | 204 kts | 169° |
| 2026-04-15 03:56 | 64.56783 | 40.84099 | 3512 ft | 221 kts | 210° |
| 2026-04-15 03:56 | 64.55494 | 40.81635 | 4191 ft | 235 kts | 220° |
| 2026-04-15 03:56 | 64.54185 | 40.79005 | 4758 ft | 253 kts | 219° |
| 2026-04-15 03:57 | 64.52768 | 40.76255 | 5394 ft | 268 kts | 219° |
| 2026-04-15 03:57 | 64.51305 | 40.73452 | 6267 ft | 272 kts | 219° |
| 2026-04-15 03:57 | 64.49755 | 40.70496 | 7192 ft | 277 kts | 219° |
| 2026-04-15 03:57 | 64.48256 | 40.67650 | 8069 ft | 281 kts | 219° |
| 2026-04-15 03:58 | 64.46716 | 40.64734 | 8938 ft | 284 kts | 219° |
| 2026-04-15 03:58 | 64.45174 | 40.61817 | 9790 ft | 288 kts | 219° |
| 2026-04-15 03:58 | 64.43621 | 40.58885 | 10617 ft | 291 kts | 219° |
| 2026-04-15 03:58 | 64.42051 | 40.55924 | 11276 ft | 301 kts | 219° |
| 2026-04-15 03:59 | 64.40397 | 40.52810 | 11673 ft | 318 kts | 219° |
| 2026-04-15 03:59 | 64.38638 | 40.49505 | 12041 ft | 336 kts | 219° |
| 2026-04-15 03:59 | 64.36780 | 40.46021 | 12577 ft | 347 kts | 219° |
| 2026-04-15 03:59 | 64.34860 | 40.42425 | 13348 ft | 351 kts | 219° |
| 2026-04-15 04:00 | 64.32946 | 40.38849 | 14106 ft | 354 kts | 219° |
| 2026-04-15 04:00 | 64.31055 | 40.35321 | 14837 ft | 357 kts | 219° |
| 2026-04-15 04:00 | 64.29099 | 40.31678 | 15564 ft | 360 kts | 219° |
| 2026-04-15 04:00 | 64.27169 | 40.28081 | 16266 ft | 363 kts | 219° |
| 2026-04-15 04:01 | 64.25211 | 40.24443 | 16969 ft | 365 kts | 219° |
| 2026-04-15 04:01 | 64.23244 | 40.20798 | 17616 ft | 369 kts | 219° |
| 2026-04-15 04:01 | 64.21201 | 40.17022 | 18185 ft | 374 kts | 219° |
| 2026-04-15 04:01 | 64.19160 | 40.13256 | 18832 ft | 377 kts | 219° |
| 2026-04-15 04:02 | 64.17096 | 40.09458 | 19458 ft | 380 kts | 219° |
| 2026-04-15 04:02 | 64.15040 | 40.05685 | 20046 ft | 383 kts | 219° |
| 2026-04-15 04:02 | 64.12963 | 40.01881 | 20626 ft | 386 kts | 219° |
| 2026-04-15 04:02 | 64.10858 | 39.98030 | 21196 ft | 390 kts | 219° |
| 2026-04-15 04:03 | 64.08720 | 39.94128 | 21751 ft | 393 kts | 219° |
| 2026-04-15 04:03 | 64.06570 | 39.90208 | 22292 ft | 396 kts | 219° |
| 2026-04-15 04:03 | 64.04428 | 39.86315 | 22814 ft | 399 kts | 220° |
| 2026-04-15 04:03 | 64.02271 | 39.82400 | 23328 ft | 402 kts | 220° |
| 2026-04-15 04:04 | 64.00085 | 39.78443 | 23834 ft | 405 kts | 220° |
| 2026-04-15 04:04 | 63.97839 | 39.74387 | 24353 ft | 408 kts | 220° |
| 2026-04-15 04:04 | 63.95618 | 39.70383 | 24843 ft | 410 kts | 220° |
| 2026-04-15 04:04 | 63.93371 | 39.66342 | 25328 ft | 413 kts | 220° |
| 2026-04-15 04:05 | 63.91112 | 39.62288 | 25811 ft | 415 kts | 220° |
| 2026-04-15 04:05 | 63.88859 | 39.58259 | 26279 ft | 417 kts | 220° |
| 2026-04-15 04:05 | 63.86565 | 39.54237 | 26732 ft | 419 kts | 218° |
| 2026-04-15 04:05 | 63.84128 | 39.50379 | 27160 ft | 423 kts | 216° |
| 2026-04-15 04:06 | 63.81716 | 39.46669 | 27586 ft | 424 kts | 216° |
| 2026-04-15 04:06 | 63.79267 | 39.42887 | 28007 ft | 426 kts | 216° |
| 2026-04-15 04:06 | 63.76848 | 39.39152 | 28401 ft | 428 kts | 217° |
| 2026-04-15 04:06 | 63.74343 | 39.35295 | 28815 ft | 430 kts | 216° |
| 2026-04-15 04:07 | 63.71864 | 39.31479 | 29343 ft | 428 kts | 216° |
| 2026-04-15 04:07 | 63.69432 | 39.27740 | 29892 ft | 426 kts | 216° |
| 2026-04-15 04:07 | 63.66976 | 39.23973 | 30409 ft | 425 kts | 216° |
| 2026-04-15 04:07 | 63.64536 | 39.20243 | 30890 ft | 424 kts | 216° |
| 2026-04-15 04:08 | 63.62113 | 39.16550 | 31334 ft | 423 kts | 216° |
| 2026-04-15 04:08 | 63.59665 | 39.12829 | 31751 ft | 422 kts | 216° |
| 2026-04-15 04:08 | 63.57252 | 39.09172 | 32146 ft | 422 kts | 216° |
| 2026-04-15 04:08 | 63.54783 | 39.05436 | 32522 ft | 421 kts | 216° |
| 2026-04-15 04:09 | 63.52303 | 39.01693 | 32889 ft | 421 kts | 216° |
| 2026-04-15 04:09 | 63.49795 | 38.97915 | 33244 ft | 420 kts | 216° |
| 2026-04-15 04:09 | 63.47308 | 38.94176 | 33597 ft | 420 kts | 216° |
| 2026-04-15 04:09 | 63.44772 | 38.90371 | 33942 ft | 419 kts | 216° |
| 2026-04-15 04:10 | 63.42352 | 38.86749 | 34261 ft | 418 kts | 216° |
| 2026-04-15 04:10 | 63.39922 | 38.83123 | 34583 ft | 418 kts | 216° |
| 2026-04-15 04:10 | 63.37514 | 38.79538 | 34880 ft | 417 kts | 216° |
| 2026-04-15 04:10 | 63.35108 | 38.75957 | 35154 ft | 417 kts | 216° |
| 2026-04-15 04:11 | 63.32715 | 38.72395 | 35380 ft | 417 kts | 216° |
| 2026-04-15 04:11 | 63.30256 | 38.68739 | 35607 ft | 416 kts | 216° |
| 2026-04-15 04:11 | 63.27861 | 38.65185 | 35828 ft | 416 kts | 216° |
| 2026-04-15 04:11 | 63.25461 | 38.61634 | 36044 ft | 416 kts | 216° |
| 2026-04-15 04:12 | 63.23054 | 38.58080 | 36246 ft | 415 kts | 216° |
| 2026-04-15 04:12 | 63.20551 | 38.54392 | 36446 ft | 415 kts | 216° |
| 2026-04-15 04:12 | 63.18122 | 38.50821 | 36641 ft | 415 kts | 216° |
| 2026-04-15 04:12 | 63.15640 | 38.47180 | 36824 ft | 415 kts | 216° |
| 2026-04-15 04:13 | 63.13195 | 38.43601 | 36969 ft | 416 kts | 216° |
| 2026-04-15 04:13 | 63.10809 | 38.40113 | 37135 ft | 416 kts | 215° |
| 2026-04-15 04:13 | 63.08396 | 38.36595 | 37278 ft | 417 kts | 216° |
| 2026-04-15 04:13 | 63.05985 | 38.33084 | 37421 ft | 418 kts | 214° |
| 2026-04-15 04:14 | 63.03558 | 38.29548 | 37555 ft | 418 kts | 214° |
| 2026-04-15 04:14 | 63.01153 | 38.26048 | 37686 ft | 419 kts | 214° |
| 2026-04-15 04:14 | 62.98703 | 38.22497 | 37810 ft | 420 kts | 214° |
| 2026-04-15 04:14 | 62.96295 | 38.19016 | 37933 ft | 421 kts | 214° |
| 2026-04-15 04:15 | 62.93831 | 38.15466 | 38060 ft | 421 kts | 214° |
| 2026-04-15 04:15 | 62.91386 | 38.11950 | 38172 ft | 422 kts | 214° |
| 2026-04-15 04:15 | 62.88948 | 38.08453 | 38276 ft | 423 kts | 214° |
| 2026-04-15 04:15 | 62.86506 | 38.04975 | 38382 ft | 423 kts | 214° |
| 2026-04-15 04:16 | 62.84033 | 38.01464 | 38488 ft | 424 kts | 214° |
| 2026-04-15 04:16 | 62.79114 | 37.94479 | 38490 ft | 424 kts | 214° |
| 2026-04-15 04:17 | 62.74171 | 37.87471 | 38491 ft | 424 kts | 214° |
| 2026-04-15 04:17 | 62.69247 | 37.80512 | 38494 ft | 424 kts | 214° |
| 2026-04-15 04:18 | 62.64286 | 37.73532 | 38492 ft | 424 kts | 214° |
| 2026-04-15 04:18 | 62.59343 | 37.66589 | 38491 ft | 424 kts | 214° |
| 2026-04-15 04:19 | 62.54412 | 37.59686 | 38496 ft | 424 kts | 214° |
| 2026-04-15 04:19 | 62.49479 | 37.52806 | 38495 ft | 424 kts | 214° |
| 2026-04-15 04:20 | 62.44469 | 37.45848 | 38488 ft | 424 kts | 214° |
| 2026-04-15 04:20 | 62.39538 | 37.39026 | 38480 ft | 423 kts | 214° |
| 2026-04-15 04:21 | 62.34584 | 37.32194 | 38479 ft | 423 kts | 213° |
| 2026-04-15 04:21 | 62.29663 | 37.25415 | 38481 ft | 423 kts | 213° |
| 2026-04-15 04:22 | 62.24720 | 37.18650 | 38482 ft | 423 kts | 213° |
| 2026-04-15 04:22 | 62.19785 | 37.11935 | 38479 ft | 423 kts | 213° |
| 2026-04-15 04:23 | 62.14816 | 37.05203 | 38475 ft | 423 kts | 213° |
| 2026-04-15 04:23 | 62.09882 | 36.98525 | 38471 ft | 423 kts | 213° |
| 2026-04-15 04:24 | 62.04913 | 36.91829 | 38470 ft | 422 kts | 212° |
| 2026-04-15 04:24 | 61.99965 | 36.85193 | 38461 ft | 422 kts | 212° |
| 2026-04-15 04:25 | 61.95022 | 36.78593 | 38459 ft | 422 kts | 212° |
| 2026-04-15 04:25 | 61.90073 | 36.71886 | 38453 ft | 422 kts | 215° |
| 2026-04-15 04:26 | 61.85445 | 36.64393 | 38455 ft | 421 kts | 220° |
| 2026-04-15 04:26 | 61.81215 | 36.55873 | 38449 ft | 421 kts | 227° |
| 2026-04-15 04:27 | 61.77249 | 36.46917 | 38458 ft | 420 kts | 226° |
| 2026-04-15 04:27 | 61.73237 | 36.37928 | 38451 ft | 420 kts | 226° |
| 2026-04-15 04:28 | 61.69248 | 36.29003 | 38447 ft | 420 kts | 226° |
| 2026-04-15 04:28 | 61.65247 | 36.20070 | 38446 ft | 420 kts | 225° |
| 2026-04-15 04:29 | 61.61202 | 36.11087 | 38439 ft | 420 kts | 225° |
| 2026-04-15 04:29 | 61.57195 | 36.02230 | 38430 ft | 420 kts | 225° |
| 2026-04-15 04:30 | 61.53208 | 35.93456 | 38427 ft | 420 kts | 225° |
| 2026-04-15 04:30 | 61.49121 | 35.84500 | 38437 ft | 420 kts | 225° |
| 2026-04-15 04:31 | 61.45054 | 35.75621 | 38438 ft | 419 kts | 225° |
| 2026-04-15 04:31 | 61.40993 | 35.66790 | 38434 ft | 419 kts | 225° |
| 2026-04-15 04:32 | 61.36933 | 35.58001 | 38435 ft | 419 kts | 225° |
| 2026-04-15 04:32 | 61.32831 | 35.49155 | 38435 ft | 419 kts | 225° |
| 2026-04-15 04:33 | 61.28752 | 35.40393 | 38437 ft | 419 kts | 225° |
| 2026-04-15 04:33 | 61.24701 | 35.31719 | 38431 ft | 419 kts | 224° |
| 2026-04-15 04:34 | 61.20664 | 35.23087 | 38423 ft | 419 kts | 224° |
| 2026-04-15 04:34 | 61.16617 | 35.14480 | 38413 ft | 418 kts | 224° |
| 2026-04-15 04:35 | 61.12577 | 35.05931 | 38405 ft | 418 kts | 224° |
| 2026-04-15 04:35 | 61.08532 | 34.97409 | 38402 ft | 417 kts | 224° |
| 2026-04-15 04:36 | 61.04466 | 34.88880 | 38410 ft | 417 kts | 224° |
| 2026-04-15 04:36 | 61.00411 | 34.80406 | 38409 ft | 417 kts | 224° |
| 2026-04-15 04:37 | 60.96330 | 34.71914 | 38403 ft | 418 kts | 224° |
| 2026-04-15 04:37 | 60.92236 | 34.63418 | 38389 ft | 418 kts | 224° |
| 2026-04-15 04:38 | 60.88164 | 34.55018 | 38386 ft | 417 kts | 224° |
| 2026-04-15 04:38 | 60.84012 | 34.46533 | 38394 ft | 417 kts | 224° |
| 2026-04-15 04:39 | 60.79928 | 34.38189 | 38393 ft | 417 kts | 224° |
| 2026-04-15 04:39 | 60.75816 | 34.29792 | 38392 ft | 418 kts | 223° |
| 2026-04-15 04:40 | 60.71731 | 34.21462 | 38387 ft | 418 kts | 223° |
| 2026-04-15 04:40 | 60.67611 | 34.13101 | 38390 ft | 418 kts | 223° |
| 2026-04-15 04:41 | 60.63504 | 34.04808 | 38389 ft | 418 kts | 223° |
| 2026-04-15 04:41 | 60.59367 | 33.96482 | 38383 ft | 418 kts | 223° |
| 2026-04-15 04:42 | 60.55257 | 33.88242 | 38435 ft | 416 kts | 223° |
| 2026-04-15 04:42 | 60.51053 | 33.79854 | 38388 ft | 416 kts | 223° |
| 2026-04-15 04:43 | 60.46777 | 33.71354 | 38368 ft | 416 kts | 223° |
| 2026-04-15 04:43 | 60.42450 | 33.62783 | 38365 ft | 416 kts | 223° |
| 2026-04-15 04:44 | 60.38132 | 33.54265 | 38355 ft | 416 kts | 223° |
| 2026-04-15 04:44 | 60.33860 | 33.45871 | 38349 ft | 415 kts | 223° |
| 2026-04-15 04:45 | 60.29537 | 33.37408 | 38354 ft | 415 kts | 222° |
| 2026-04-15 04:45 | 60.27427 | 33.33292 | 38232 ft | 416 kts | 221° |
| 2026-04-15 04:45 | 60.25377 | 33.29284 | 38035 ft | 414 kts | 221° |
| 2026-04-15 04:45 | 60.23358 | 33.25092 | 37790 ft | 412 kts | 226° |
| 2026-04-15 04:46 | 60.21564 | 33.20687 | 37461 ft | 411 kts | 230° |
| 2026-04-15 04:46 | 60.18545 | 33.10950 | 36501 ft | 417 kts | 239° |
| 2026-04-15 04:46 | 60.17341 | 33.05630 | 35922 ft | 423 kts | 244° |
| 2026-04-15 04:47 | 60.16369 | 33.00107 | 35315 ft | 428 kts | 248° |
| 2026-04-15 04:47 | 60.15527 | 32.94334 | 34568 ft | 430 kts | 249° |
| 2026-04-15 04:47 | 60.14711 | 32.88591 | 33864 ft | 430 kts | 249° |
| 2026-04-15 04:47 | 60.13903 | 32.82904 | 33209 ft | 429 kts | 249° |
| 2026-04-15 04:48 | 60.13083 | 32.77155 | 32554 ft | 428 kts | 249° |
| 2026-04-15 04:48 | 60.12270 | 32.71504 | 31887 ft | 427 kts | 249° |
| 2026-04-15 04:48 | 60.11444 | 32.65790 | 31227 ft | 426 kts | 249° |
| 2026-04-15 04:48 | 60.10625 | 32.60147 | 30536 ft | 426 kts | 249° |
| 2026-04-15 04:49 | 60.09801 | 32.54491 | 29815 ft | 426 kts | 248° |
| 2026-04-15 04:49 | 60.08971 | 32.48824 | 29081 ft | 426 kts | 248° |
| 2026-04-15 04:49 | 60.08131 | 32.43113 | 28365 ft | 425 kts | 248° |
| 2026-04-15 04:49 | 60.07310 | 32.37527 | 27616 ft | 426 kts | 249° |
| 2026-04-15 04:50 | 60.06600 | 32.31715 | 27005 ft | 426 kts | 252° |
| 2026-04-15 04:50 | 60.06133 | 32.25945 | 26540 ft | 424 kts | 257° |
| 2026-04-15 04:50 | 60.05887 | 32.19965 | 26050 ft | 421 kts | 261° |
| 2026-04-15 04:50 | 60.05754 | 32.14144 | 25577 ft | 417 kts | 262° |
| 2026-04-15 04:51 | 60.05633 | 32.08333 | 25095 ft | 413 kts | 261° |
| 2026-04-15 04:51 | 60.05512 | 32.02656 | 24628 ft | 409 kts | 261° |
| 2026-04-15 04:51 | 60.05385 | 31.97005 | 24147 ft | 406 kts | 261° |
| 2026-04-15 04:51 | 60.05253 | 31.91339 | 23677 ft | 403 kts | 261° |
| 2026-04-15 04:52 | 60.05116 | 31.85560 | 23190 ft | 400 kts | 261° |
| 2026-04-15 04:52 | 60.04980 | 31.80082 | 22719 ft | 398 kts | 261° |
| 2026-04-15 04:52 | 60.04841 | 31.74602 | 22231 ft | 397 kts | 261° |
| 2026-04-15 04:52 | 60.04699 | 31.69076 | 21745 ft | 395 kts | 261° |
| 2026-04-15 04:53 | 60.04560 | 31.63655 | 21260 ft | 393 kts | 261° |
| 2026-04-15 04:53 | 60.04416 | 31.58220 | 20769 ft | 392 kts | 261° |
| 2026-04-15 04:53 | 60.04272 | 31.52842 | 20283 ft | 390 kts | 261° |
| 2026-04-15 04:53 | 60.04126 | 31.47470 | 19795 ft | 389 kts | 261° |
| 2026-04-15 04:54 | 60.03978 | 31.42066 | 19291 ft | 387 kts | 261° |
| 2026-04-15 04:54 | 60.03758 | 31.36770 | 18811 ft | 384 kts | 258° |
| 2026-04-15 04:54 | 60.03368 | 31.31513 | 18326 ft | 380 kts | 253° |
| 2026-04-15 04:54 | 60.02860 | 31.26388 | 17854 ft | 377 kts | 252° |
| 2026-04-15 04:55 | 60.02336 | 31.21336 | 17382 ft | 375 kts | 252° |
| 2026-04-15 04:55 | 60.01800 | 31.16204 | 16913 ft | 373 kts | 252° |
| 2026-04-15 04:55 | 60.01271 | 31.11152 | 16449 ft | 371 kts | 252° |
| 2026-04-15 04:55 | 60.00743 | 31.06104 | 15984 ft | 369 kts | 252° |
| 2026-04-15 04:56 | 60.00222 | 31.01127 | 15516 ft | 366 kts | 252° |
| 2026-04-15 04:56 | 59.99697 | 30.96140 | 15052 ft | 364 kts | 252° |
| 2026-04-15 04:56 | 59.99181 | 30.91239 | 14608 ft | 361 kts | 252° |
| 2026-04-15 04:56 | 59.98665 | 30.86389 | 14162 ft | 359 kts | 252° |
| 2026-04-15 04:57 | 59.98148 | 30.81525 | 13699 ft | 358 kts | 252° |
| 2026-04-15 04:57 | 59.97634 | 30.76716 | 13240 ft | 356 kts | 252° |
| 2026-04-15 04:57 | 59.97121 | 30.71944 | 12790 ft | 354 kts | 253° |
| 2026-04-15 04:57 | 59.96607 | 30.67166 | 12332 ft | 352 kts | 253° |
| 2026-04-15 04:58 | 59.96094 | 30.62417 | 11872 ft | 350 kts | 253° |
| 2026-04-15 04:58 | 59.95707 | 30.57623 | 11437 ft | 353 kts | 263° |
| 2026-04-15 04:58 | 59.95872 | 30.52769 | 10981 ft | 357 kts | 278° |
| 2026-04-15 04:58 | 59.96617 | 30.48065 | 10570 ft | 358 kts | 292° |
| 2026-04-15 04:59 | 59.97889 | 30.43749 | 10266 ft | 365 kts | 303° |
| 2026-04-15 04:59 | 59.99242 | 30.39543 | 10074 ft | 358 kts | 297° |
| 2026-04-15 04:59 | 60.00248 | 30.35092 | 10021 ft | 340 kts | 289° |
| 2026-04-15 04:59 | 60.01049 | 30.30782 | 9937 ft | 324 kts | 285° |
| 2026-04-15 05:00 | 60.01763 | 30.26601 | 9867 ft | 310 kts | 285° |
| 2026-04-15 05:00 | 60.02439 | 30.22510 | 9566 ft | 312 kts | 284° |
| 2026-04-15 05:00 | 60.03077 | 30.18343 | 9102 ft | 311 kts | 281° |
| 2026-04-15 05:00 | 60.03532 | 30.14270 | 9110 ft | 301 kts | 276° |
| 2026-04-15 05:01 | 60.03850 | 30.10095 | 8954 ft | 301 kts | 274° |
| 2026-04-15 05:01 | 60.04127 | 30.05971 | 8694 ft | 300 kts | 274° |
| 2026-04-15 05:01 | 60.04401 | 30.01838 | 8396 ft | 298 kts | 274° |
| 2026-04-15 05:01 | 60.04678 | 29.97728 | 8096 ft | 296 kts | 274° |
| 2026-04-15 05:02 | 60.04956 | 29.93538 | 7782 ft | 295 kts | 275° |
| 2026-04-15 05:02 | 60.05229 | 29.89325 | 7454 ft | 293 kts | 275° |
| 2026-04-15 05:02 | 60.05500 | 29.85132 | 7138 ft | 291 kts | 275° |
| 2026-04-15 05:02 | 60.05766 | 29.81004 | 6823 ft | 289 kts | 275° |
| 2026-04-15 05:03 | 60.05991 | 29.76960 | 6505 ft | 286 kts | 268° |
| 2026-04-15 05:03 | 60.05738 | 29.73112 | 6379 ft | 270 kts | 250° |
| 2026-04-15 05:03 | 60.05101 | 29.69628 | 6352 ft | 253 kts | 244° |
| 2026-04-15 05:03 | 60.04411 | 29.66413 | 6341 ft | 245 kts | 239° |
| 2026-04-15 05:04 | 60.03469 | 29.63405 | 6356 ft | 244 kts | 227° |
| 2026-04-15 05:04 | 60.02306 | 29.60660 | 6359 ft | 243 kts | 224° |
| 2026-04-15 05:04 | 60.01167 | 29.58104 | 6355 ft | 243 kts | 224° |
| 2026-04-15 05:04 | 60.00017 | 29.55502 | 6356 ft | 243 kts | 224° |
| 2026-04-15 05:05 | 59.98827 | 29.53125 | 6362 ft | 239 kts | 213° |
| 2026-04-15 05:05 | 59.97435 | 29.51357 | 6365 ft | 235 kts | 203° |
| 2026-04-15 05:05 | 59.95968 | 29.49870 | 6357 ft | 235 kts | 201° |
| 2026-04-15 05:05 | 59.94492 | 29.48415 | 6362 ft | 235 kts | 201° |
| 2026-04-15 05:06 | 59.92995 | 29.46927 | 6359 ft | 235 kts | 201° |
| 2026-04-15 05:06 | 59.91483 | 29.45813 | 6358 ft | 229 kts | 188° |
| 2026-04-15 05:06 | 59.89895 | 29.45359 | 6359 ft | 228 kts | 181° |
| 2026-04-15 05:06 | 59.88284 | 29.45102 | 6360 ft | 227 kts | 181° |
| 2026-04-15 05:07 | 59.86706 | 29.44862 | 6353 ft | 227 kts | 180° |
| 2026-04-15 05:07 | 59.85114 | 29.44611 | 6362 ft | 227 kts | 179° |
| 2026-04-15 05:07 | 59.83512 | 29.44761 | 6350 ft | 223 kts | 166° |
| 2026-04-15 05:07 | 59.81985 | 29.45544 | 6351 ft | 222 kts | 160° |
| 2026-04-15 05:08 | 59.80434 | 29.46607 | 6344 ft | 220 kts | 149° |
| 2026-04-15 05:08 | 59.79282 | 29.48791 | 6339 ft | 215 kts | 118° |
| 2026-04-15 05:08 | 59.78869 | 29.51747 | 6343 ft | 217 kts | 91° |
| 2026-04-15 05:08 | 59.79223 | 29.54684 | 6347 ft | 223 kts | 64° |
| 2026-04-15 05:09 | 59.80258 | 29.57178 | 6348 ft | 229 kts | 51° |
| 2026-04-15 05:09 | 59.81389 | 29.59468 | 6319 ft | 229 kts | 50° |
| 2026-04-15 05:09 | 59.82512 | 29.61761 | 6276 ft | 228 kts | 51° |
| 2026-04-15 05:09 | 59.83633 | 29.64061 | 5977 ft | 227 kts | 51° |
| 2026-04-15 05:10 | 59.84766 | 29.66393 | 5707 ft | 226 kts | 51° |
| 2026-04-15 05:10 | 59.85868 | 29.68658 | 5450 ft | 223 kts | 50° |
| 2026-04-15 05:10 | 59.86977 | 29.70939 | 5203 ft | 220 kts | 50° |
| 2026-04-15 05:10 | 59.88034 | 29.73117 | 4960 ft | 217 kts | 50° |
| 2026-04-15 05:11 | 59.89098 | 29.75310 | 4713 ft | 214 kts | 50° |
| 2026-04-15 05:11 | 59.90152 | 29.77486 | 4470 ft | 211 kts | 49° |
| 2026-04-15 05:11 | 59.91174 | 29.79671 | 4225 ft | 207 kts | 57° |
| 2026-04-15 05:11 | 59.91674 | 29.82315 | 3942 ft | 203 kts | 88° |
| 2026-04-15 05:12 | 59.91416 | 29.85041 | 3754 ft | 207 kts | 115° |
| 2026-04-15 05:12 | 59.90467 | 29.87304 | 3711 ft | 218 kts | 143° |
| 2026-04-15 05:12 | 59.89110 | 29.88695 | 3614 ft | 223 kts | 151° |
| 2026-04-15 05:12 | 59.87680 | 29.90032 | 3287 ft | 225 kts | 151° |
| 2026-04-15 05:13 | 59.86244 | 29.91383 | 2982 ft | 224 kts | 151° |
| 2026-04-15 05:13 | 59.84840 | 29.92747 | 2792 ft | 216 kts | 143° |
| 2026-04-15 05:13 | 59.83901 | 29.94805 | 2774 ft | 193 kts | 112° |
| 2026-04-15 05:13 | 59.83499 | 29.97244 | 2631 ft | 187 kts | 100° |
| 2026-04-15 05:14 | 59.83226 | 29.99799 | 2439 ft | 181 kts | 101° |
| 2026-04-15 05:14 | 59.82933 | 30.02141 | 2180 ft | 169 kts | 103° |
| 2026-04-15 05:14 | 59.82625 | 30.04298 | 1925 ft | 159 kts | 104° |
| 2026-04-15 05:14 | 59.82318 | 30.06346 | 1685 ft | 150 kts | 104° |
| 2026-04-15 05:15 | 59.82027 | 30.08263 | 1484 ft | 141 kts | 104° |
| 2026-04-15 05:15 | 59.81745 | 30.10138 | 1317 ft | 143 kts | 104° |
| 2026-04-15 05:15 | 59.81457 | 30.12060 | 1143 ft | 145 kts | 105° |
| 2026-04-15 05:15 | 59.81171 | 30.13971 | 942 ft | 145 kts | 105° |
| 2026-04-15 05:16 | 59.80886 | 30.15894 | 746 ft | 145 kts | 105° |
| 2026-04-15 05:16 | 59.80601 | 30.17837 | 532 ft | 145 kts | 105° |
| 2026-04-15 05:16 | 59.80308 | 30.19792 | 358 ft | 145 kts | 106° |
| 2026-04-15 05:16 | 59.80014 | 30.21735 | 188 ft | 146 kts | 106° |
| 2026-04-15 05:17 | 59.79734 | 30.23595 | 89 ft | 129 kts | 105° |
| 2026-04-15 05:17 | 59.79545 | 30.24874 | 85 ft | 38 kts | 107° |
| 2026-04-15 05:17 | 59.79493 | 30.25374 | 85 ft | 35 kts | 90° |
| 2026-04-15 05:17 | 59.79523 | 30.25726 | 85 ft | 15 kts | 75° |
| 2026-04-15 05:18 | 59.79542 | 30.25939 | 85 ft | 15 kts | 80° |
| 2026-04-15 05:18 | 59.79532 | 30.26157 | 86 ft | 10 kts | 104° |
| 2026-04-15 05:18 | 59.79518 | 30.26304 | 85 ft | 10 kts | 76° |
| 2026-04-15 05:18 | 59.79583 | 30.26375 | 85 ft | 11 kts | 15° |
| 2026-04-15 05:19 | 59.79665 | 30.26421 | 85 ft | 12 kts | 15° |
| 2026-04-15 05:19 | 59.79728 | 30.26474 | 85 ft | 7 kts | 56° |
| 2026-04-15 05:19 | 59.79749 | 30.26574 | 85 ft | 8 kts | 81° |
| 2026-04-15 05:19 | 59.79746 | 30.26614 | 85 ft | 0 kts | 101° |